sensor_id;sensor_type;location;lat;lon;timestamp;P1;durP1;ratioP1;P2;durP2;ratioP2
40339;SDS011;26044;50.864;20.658;2022-12-07T00:01:32;21.85;;;8.85;;
40339;SDS011;26044;50.864;20.658;2022-12-07T00:04:22;25.33;;;8.88;;
40339;SDS011;26044;50.864;20.658;2022-12-07T00:06:52;23.45;;;9.18;;
40339;SDS011;26044;50.864;20.658;2022-12-07T00:09:19;23.57;;;9.23;;
40339;SDS011;26044;50.864;20.658;2022-12-07T00:11:48;26.27;;;9.50;;
40339;SDS011;26044;50.864;20.658;2022-12-07T00:14:16;21.23;;;9.38;;
40339;SDS011;26044;50.864;20.658;2022-12-07T00:16:44;23.70;;;9.30;;
40339;SDS011;26044;50.864;20.658;2022-12-07T00:19:12;26.95;;;9.48;;
40339;SDS011;26044;50.864;20.658;2022-12-07T00:21:39;22.95;;;9.88;;
40339;SDS011;26044;50.864;20.658;2022-12-07T00:24:06;31.23;;;12.02;;
40339;SDS011;26044;50.864;20.658;2022-12-07T00:26:35;24.33;;;9.90;;
40339;SDS011;26044;50.864;20.658;2022-12-07T00:31:36;25.30;;;10.55;;
40339;SDS011;26044;50.864;20.658;2022-12-07T00:34:05;22.27;;;9.48;;
40339;SDS011;26044;50.864;20.658;2022-12-07T00:36:33;24.10;;;10.07;;
40339;SDS011;26044;50.864;20.658;2022-12-07T00:39:00;21.25;;;7.95;;
40339;SDS011;26044;50.864;20.658;2022-12-07T00:41:28;26.85;;;10.98;;
40339;SDS011;26044;50.864;20.658;2022-12-07T00:43:56;24.25;;;9.25;;
40339;SDS011;26044;50.864;20.658;2022-12-07T00:46:23;26.15;;;10.02;;
40339;SDS011;26044;50.864;20.658;2022-12-07T00:48:52;22.90;;;9.40;;
40339;SDS011;26044;50.864;20.658;2022-12-07T00:51:21;20.25;;;8.38;;
40339;SDS011;26044;50.864;20.658;2022-12-07T00:53:49;23.98;;;10.10;;
40339;SDS011;26044;50.864;20.658;2022-12-07T00:56:18;25.77;;;9.80;;
40339;SDS011;26044;50.864;20.658;2022-12-07T00:58:55;24.30;;;10.07;;
40339;SDS011;26044;50.864;20.658;2022-12-07T01:01:27;23.60;;;10.40;;
40339;SDS011;26044;50.864;20.658;2022-12-07T01:03:56;26.35;;;10.32;;
40339;SDS011;26044;50.864;20.658;2022-12-07T01:06:27;26.38;;;10.82;;
40339;SDS011;26044;50.864;20.658;2022-12-07T01:08:55;27.88;;;11.75;;
40339;SDS011;26044;50.864;20.658;2022-12-07T01:11:24;26.00;;;10.82;;
40339;SDS011;26044;50.864;20.658;2022-12-07T01:13:53;26.33;;;12.10;;
40339;SDS011;26044;50.864;20.658;2022-12-07T01:16:23;25.70;;;11.70;;
40339;SDS011;26044;50.864;20.658;2022-12-07T01:18:52;26.88;;;11.10;;
40339;SDS011;26044;50.864;20.658;2022-12-07T01:21:30;25.30;;;10.60;;
40339;SDS011;26044;50.864;20.658;2022-12-07T01:24:01;24.50;;;9.95;;
40339;SDS011;26044;50.864;20.658;2022-12-07T01:26:29;25.00;;;10.68;;
40339;SDS011;26044;50.864;20.658;2022-12-07T01:28:56;26.60;;;10.70;;
40339;SDS011;26044;50.864;20.658;2022-12-07T01:31:26;24.35;;;9.82;;
40339;SDS011;26044;50.864;20.658;2022-12-07T01:33:55;22.50;;;10.10;;
40339;SDS011;26044;50.864;20.658;2022-12-07T01:38:58;22.10;;;10.18;;
40339;SDS011;26044;50.864;20.658;2022-12-07T01:41:31;23.88;;;10.35;;
40339;SDS011;26044;50.864;20.658;2022-12-07T01:46:55;26.02;;;10.93;;
40339;SDS011;26044;50.864;20.658;2022-12-07T01:54:54;22.73;;;9.43;;
40339;SDS011;26044;50.864;20.658;2022-12-07T01:57:25;27.13;;;10.23;;
40339;SDS011;26044;50.864;20.658;2022-12-07T01:59:53;27.30;;;10.40;;
40339;SDS011;26044;50.864;20.658;2022-12-07T02:02:26;27.17;;;9.75;;
40339;SDS011;26044;50.864;20.658;2022-12-07T02:05:02;23.13;;;8.90;;
40339;SDS011;26044;50.864;20.658;2022-12-07T02:07:30;24.88;;;10.48;;
40339;SDS011;26044;50.864;20.658;2022-12-07T02:10:11;28.05;;;10.68;;
40339;SDS011;26044;50.864;20.658;2022-12-07T02:12:38;27.90;;;11.65;;
40339;SDS011;26044;50.864;20.658;2022-12-07T02:15:06;21.98;;;9.55;;
40339;SDS011;26044;50.864;20.658;2022-12-07T02:20:30;25.45;;;9.82;;
40339;SDS011;26044;50.864;20.658;2022-12-07T02:28:56;25.48;;;9.88;;
40339;SDS011;26044;50.864;20.658;2022-12-07T02:32:08;22.17;;;9.63;;
40339;SDS011;26044;50.864;20.658;2022-12-07T02:37:21;25.33;;;10.20;;
40339;SDS011;26044;50.864;20.658;2022-12-07T02:40:09;23.70;;;9.73;;
40339;SDS011;26044;50.864;20.658;2022-12-07T02:42:47;24.15;;;10.27;;
40339;SDS011;26044;50.864;20.658;2022-12-07T02:45:20;26.55;;;9.95;;
40339;SDS011;26044;50.864;20.658;2022-12-07T02:47:48;22.33;;;9.00;;
40339;SDS011;26044;50.864;20.658;2022-12-07T02:50:22;23.83;;;9.50;;
40339;SDS011;26044;50.864;20.658;2022-12-07T02:52:49;21.58;;;8.98;;
40339;SDS011;26044;50.864;20.658;2022-12-07T02:55:17;22.55;;;9.23;;
40339;SDS011;26044;50.864;20.658;2022-12-07T02:57:53;22.73;;;9.10;;
40339;SDS011;26044;50.864;20.658;2022-12-07T03:00:41;22.73;;;8.30;;
40339;SDS011;26044;50.864;20.658;2022-12-07T03:03:20;21.08;;;9.15;;
40339;SDS011;26044;50.864;20.658;2022-12-07T03:06:03;23.05;;;9.07;;
40339;SDS011;26044;50.864;20.658;2022-12-07T03:08:42;21.92;;;7.85;;
40339;SDS011;26044;50.864;20.658;2022-12-07T03:11:21;21.20;;;8.50;;
40339;SDS011;26044;50.864;20.658;2022-12-07T03:14:06;22.73;;;8.27;;
40339;SDS011;26044;50.864;20.658;2022-12-07T03:16:52;24.60;;;8.68;;
40339;SDS011;26044;50.864;20.658;2022-12-07T03:19:24;19.98;;;7.18;;
40339;SDS011;26044;50.864;20.658;2022-12-07T03:22:12;22.83;;;8.75;;
40339;SDS011;26044;50.864;20.658;2022-12-07T03:24:42;22.27;;;8.85;;
40339;SDS011;26044;50.864;20.658;2022-12-07T03:32:37;22.13;;;8.95;;
40339;SDS011;26044;50.864;20.658;2022-12-07T03:35:18;20.95;;;8.15;;
40339;SDS011;26044;50.864;20.658;2022-12-07T03:40:33;25.05;;;9.68;;
40339;SDS011;26044;50.864;20.658;2022-12-07T03:43:11;25.42;;;9.75;;
40339;SDS011;26044;50.864;20.658;2022-12-07T03:45:39;22.45;;;9.13;;
40339;SDS011;26044;50.864;20.658;2022-12-07T03:48:16;22.73;;;9.77;;
40339;SDS011;26044;50.864;20.658;2022-12-07T03:50:52;22.73;;;9.55;;
40339;SDS011;26044;50.864;20.658;2022-12-07T03:56:02;20.25;;;8.43;;
40339;SDS011;26044;50.864;20.658;2022-12-07T03:58:29;22.27;;;7.97;;
40339;SDS011;26044;50.864;20.658;2022-12-07T04:00:57;23.48;;;9.48;;
40339;SDS011;26044;50.864;20.658;2022-12-07T04:03:24;22.92;;;8.60;;
40339;SDS011;26044;50.864;20.658;2022-12-07T04:05:51;20.98;;;8.68;;
40339;SDS011;26044;50.864;20.658;2022-12-07T04:08:17;22.67;;;8.07;;
40339;SDS011;26044;50.864;20.658;2022-12-07T04:10:44;22.70;;;8.73;;
40339;SDS011;26044;50.864;20.658;2022-12-07T04:13:11;23.60;;;8.30;;
40339;SDS011;26044;50.864;20.658;2022-12-07T04:15:38;23.05;;;8.90;;
40339;SDS011;26044;50.864;20.658;2022-12-07T04:18:05;24.58;;;9.60;;
40339;SDS011;26044;50.864;20.658;2022-12-07T04:20:32;23.08;;;9.00;;
40339;SDS011;26044;50.864;20.658;2022-12-07T04:22:59;23.00;;;9.57;;
40339;SDS011;26044;50.864;20.658;2022-12-07T04:25:26;22.20;;;8.93;;
40339;SDS011;26044;50.864;20.658;2022-12-07T04:27:52;23.48;;;9.40;;
40339;SDS011;26044;50.864;20.658;2022-12-07T04:30:20;24.17;;;10.05;;
40339;SDS011;26044;50.864;20.658;2022-12-07T04:32:47;24.88;;;9.73;;
40339;SDS011;26044;50.864;20.658;2022-12-07T04:35:13;23.35;;;9.38;;
40339;SDS011;26044;50.864;20.658;2022-12-07T04:37:40;24.10;;;11.00;;
40339;SDS011;26044;50.864;20.658;2022-12-07T04:40:08;23.23;;;8.80;;
40339;SDS011;26044;50.864;20.658;2022-12-07T04:42:37;25.73;;;9.98;;
40339;SDS011;26044;50.864;20.658;2022-12-07T04:45:05;24.23;;;9.68;;
40339;SDS011;26044;50.864;20.658;2022-12-07T04:47:32;24.77;;;9.10;;
40339;SDS011;26044;50.864;20.658;2022-12-07T04:49:59;23.23;;;9.20;;
40339;SDS011;26044;50.864;20.658;2022-12-07T04:52:26;22.98;;;9.65;;
40339;SDS011;26044;50.864;20.658;2022-12-07T04:54:53;24.55;;;9.45;;
40339;SDS011;26044;50.864;20.658;2022-12-07T04:57:20;25.30;;;9.40;;
40339;SDS011;26044;50.864;20.658;2022-12-07T04:59:47;23.17;;;8.80;;
40339;SDS011;26044;50.864;20.658;2022-12-07T05:02:16;23.70;;;9.48;;
40339;SDS011;26044;50.864;20.658;2022-12-07T05:04:43;23.23;;;9.27;;
40339;SDS011;26044;50.864;20.658;2022-12-07T05:07:10;22.20;;;9.52;;
40339;SDS011;26044;50.864;20.658;2022-12-07T05:09:37;24.17;;;9.90;;
40339;SDS011;26044;50.864;20.658;2022-12-07T05:12:08;26.20;;;10.27;;
40339;SDS011;26044;50.864;20.658;2022-12-07T05:14:35;24.73;;;9.43;;
40339;SDS011;26044;50.864;20.658;2022-12-07T05:17:01;25.38;;;10.10;;
40339;SDS011;26044;50.864;20.658;2022-12-07T05:19:28;24.63;;;9.65;;
40339;SDS011;26044;50.864;20.658;2022-12-07T05:21:55;25.48;;;10.07;;
40339;SDS011;26044;50.864;20.658;2022-12-07T05:24:21;23.80;;;10.00;;
40339;SDS011;26044;50.864;20.658;2022-12-07T05:26:48;26.73;;;9.98;;
40339;SDS011;26044;50.864;20.658;2022-12-07T05:29:16;24.42;;;10.27;;
40339;SDS011;26044;50.864;20.658;2022-12-07T05:31:43;27.45;;;10.25;;
40339;SDS011;26044;50.864;20.658;2022-12-07T05:34:11;25.85;;;10.23;;
40339;SDS011;26044;50.864;20.658;2022-12-07T05:36:40;25.40;;;9.45;;
40339;SDS011;26044;50.864;20.658;2022-12-07T05:39:11;26.67;;;10.57;;
40339;SDS011;26044;50.864;20.658;2022-12-07T05:41:38;25.00;;;9.77;;
40339;SDS011;26044;50.864;20.658;2022-12-07T05:44:24;25.90;;;10.05;;
40339;SDS011;26044;50.864;20.658;2022-12-07T05:46:50;23.88;;;10.13;;
40339;SDS011;26044;50.864;20.658;2022-12-07T05:49:19;26.02;;;10.07;;
40339;SDS011;26044;50.864;20.658;2022-12-07T05:51:45;25.67;;;10.15;;
40339;SDS011;26044;50.864;20.658;2022-12-07T05:54:12;29.25;;;12.57;;
40339;SDS011;26044;50.864;20.658;2022-12-07T05:56:39;28.15;;;11.27;;
40339;SDS011;26044;50.864;20.658;2022-12-07T05:59:06;24.95;;;10.50;;
40339;SDS011;26044;50.864;20.658;2022-12-07T06:01:55;26.13;;;10.50;;
40339;SDS011;26044;50.864;20.658;2022-12-07T06:04:24;27.50;;;11.32;;
40339;SDS011;26044;50.864;20.658;2022-12-07T06:06:53;27.25;;;10.82;;
40339;SDS011;26044;50.864;20.658;2022-12-07T06:09:21;27.88;;;10.52;;
40339;SDS011;26044;50.864;20.658;2022-12-07T06:11:51;23.23;;;8.98;;
40339;SDS011;26044;50.864;20.658;2022-12-07T06:14:36;23.63;;;9.40;;
40339;SDS011;26044;50.864;20.658;2022-12-07T06:17:04;23.38;;;8.98;;
40339;SDS011;26044;50.864;20.658;2022-12-07T06:19:32;24.80;;;10.00;;
40339;SDS011;26044;50.864;20.658;2022-12-07T06:21:59;22.15;;;8.75;;
40339;SDS011;26044;50.864;20.658;2022-12-07T06:24:26;25.02;;;9.52;;
40339;SDS011;26044;50.864;20.658;2022-12-07T06:26:52;23.23;;;9.38;;
40339;SDS011;26044;50.864;20.658;2022-12-07T06:29:19;23.20;;;9.82;;
40339;SDS011;26044;50.864;20.658;2022-12-07T06:31:46;25.10;;;9.93;;
40339;SDS011;26044;50.864;20.658;2022-12-07T06:34:14;25.30;;;9.52;;
40339;SDS011;26044;50.864;20.658;2022-12-07T06:36:43;24.40;;;10.23;;
40339;SDS011;26044;50.864;20.658;2022-12-07T06:39:10;23.90;;;9.25;;
40339;SDS011;26044;50.864;20.658;2022-12-07T06:41:37;24.40;;;9.18;;
40339;SDS011;26044;50.864;20.658;2022-12-07T06:44:05;25.83;;;10.57;;
40339;SDS011;26044;50.864;20.658;2022-12-07T06:46:33;25.77;;;9.80;;
40339;SDS011;26044;50.864;20.658;2022-12-07T06:49:01;24.85;;;9.77;;
40339;SDS011;26044;50.864;20.658;2022-12-07T06:51:29;26.60;;;9.80;;
40339;SDS011;26044;50.864;20.658;2022-12-07T06:53:57;25.00;;;10.05;;
40339;SDS011;26044;50.864;20.658;2022-12-07T06:56:23;24.67;;;9.82;;
40339;SDS011;26044;50.864;20.658;2022-12-07T06:58:50;23.98;;;9.30;;
40339;SDS011;26044;50.864;20.658;2022-12-07T07:01:18;21.95;;;8.45;;
40339;SDS011;26044;50.864;20.658;2022-12-07T07:03:45;22.90;;;9.00;;
40339;SDS011;26044;50.864;20.658;2022-12-07T07:06:12;25.38;;;9.05;;
40339;SDS011;26044;50.864;20.658;2022-12-07T07:08:40;24.90;;;9.75;;
40339;SDS011;26044;50.864;20.658;2022-12-07T07:11:07;24.08;;;9.57;;
40339;SDS011;26044;50.864;20.658;2022-12-07T07:13:35;24.73;;;10.07;;
40339;SDS011;26044;50.864;20.658;2022-12-07T07:16:02;24.42;;;8.98;;
40339;SDS011;26044;50.864;20.658;2022-12-07T07:18:29;25.88;;;9.43;;
40339;SDS011;26044;50.864;20.658;2022-12-07T07:20:56;24.02;;;9.30;;
40339;SDS011;26044;50.864;20.658;2022-12-07T07:23:23;24.40;;;9.25;;
40339;SDS011;26044;50.864;20.658;2022-12-07T07:25:50;23.77;;;9.45;;
40339;SDS011;26044;50.864;20.658;2022-12-07T07:28:16;23.00;;;8.95;;
40339;SDS011;26044;50.864;20.658;2022-12-07T07:30:43;26.13;;;9.73;;
40339;SDS011;26044;50.864;20.658;2022-12-07T07:33:10;22.65;;;9.10;;
40339;SDS011;26044;50.864;20.658;2022-12-07T07:35:38;22.55;;;9.98;;
40339;SDS011;26044;50.864;20.658;2022-12-07T07:38:05;24.90;;;8.82;;
40339;SDS011;26044;50.864;20.658;2022-12-07T07:40:32;23.38;;;10.52;;
40339;SDS011;26044;50.864;20.658;2022-12-07T07:42:59;24.52;;;9.50;;
40339;SDS011;26044;50.864;20.658;2022-12-07T07:45:26;25.30;;;10.65;;
40339;SDS011;26044;50.864;20.658;2022-12-07T07:47:53;25.38;;;9.77;;
40339;SDS011;26044;50.864;20.658;2022-12-07T07:50:20;25.85;;;10.75;;
40339;SDS011;26044;50.864;20.658;2022-12-07T07:52:47;23.80;;;10.23;;
40339;SDS011;26044;50.864;20.658;2022-12-07T07:55:15;26.13;;;9.77;;
40339;SDS011;26044;50.864;20.658;2022-12-07T07:57:42;23.63;;;9.82;;
40339;SDS011;26044;50.864;20.658;2022-12-07T08:00:15;25.30;;;10.05;;
40339;SDS011;26044;50.864;20.658;2022-12-07T08:02:42;23.02;;;9.40;;
40339;SDS011;26044;50.864;20.658;2022-12-07T08:05:12;26.52;;;12.02;;
40339;SDS011;26044;50.864;20.658;2022-12-07T08:07:40;22.50;;;9.50;;
40339;SDS011;26044;50.864;20.658;2022-12-07T08:10:07;29.48;;;10.63;;
40339;SDS011;26044;50.864;20.658;2022-12-07T08:12:37;23.58;;;10.65;;
40339;SDS011;26044;50.864;20.658;2022-12-07T08:15:26;28.92;;;10.48;;
40339;SDS011;26044;50.864;20.658;2022-12-07T08:17:54;24.10;;;10.52;;
40339;SDS011;26044;50.864;20.658;2022-12-07T08:20:21;26.45;;;11.10;;
40339;SDS011;26044;50.864;20.658;2022-12-07T08:22:48;22.30;;;9.30;;
40339;SDS011;26044;50.864;20.658;2022-12-07T08:25:15;25.17;;;10.77;;
40339;SDS011;26044;50.864;20.658;2022-12-07T08:27:41;24.05;;;10.07;;
40339;SDS011;26044;50.864;20.658;2022-12-07T08:30:08;25.05;;;10.32;;
40339;SDS011;26044;50.864;20.658;2022-12-07T08:32:35;29.20;;;12.63;;
40339;SDS011;26044;50.864;20.658;2022-12-07T08:35:04;26.52;;;12.73;;
40339;SDS011;26044;50.864;20.658;2022-12-07T08:37:31;27.75;;;12.02;;
40339;SDS011;26044;50.864;20.658;2022-12-07T08:39:58;26.65;;;11.38;;
40339;SDS011;26044;50.864;20.658;2022-12-07T08:42:25;30.60;;;11.18;;
40339;SDS011;26044;50.864;20.658;2022-12-07T08:44:56;27.23;;;11.55;;
40339;SDS011;26044;50.864;20.658;2022-12-07T08:47:23;26.35;;;10.27;;
40339;SDS011;26044;50.864;20.658;2022-12-07T08:49:51;22.77;;;9.25;;
40339;SDS011;26044;50.864;20.658;2022-12-07T08:52:19;33.85;;;14.13;;
40339;SDS011;26044;50.864;20.658;2022-12-07T08:54:46;30.55;;;12.35;;
40339;SDS011;26044;50.864;20.658;2022-12-07T08:57:13;25.65;;;11.50;;
40339;SDS011;26044;50.864;20.658;2022-12-07T08:59:40;28.05;;;13.02;;
40339;SDS011;26044;50.864;20.658;2022-12-07T09:02:07;25.65;;;10.80;;
40339;SDS011;26044;50.864;20.658;2022-12-07T09:04:33;28.23;;;11.35;;
40339;SDS011;26044;50.864;20.658;2022-12-07T09:07:00;26.25;;;10.60;;
40339;SDS011;26044;50.864;20.658;2022-12-07T09:09:27;26.17;;;11.23;;
40339;SDS011;26044;50.864;20.658;2022-12-07T09:11:54;25.67;;;11.35;;
40339;SDS011;26044;50.864;20.658;2022-12-07T09:14:21;26.15;;;10.07;;
40339;SDS011;26044;50.864;20.658;2022-12-07T09:16:48;27.40;;;12.18;;
40339;SDS011;26044;50.864;20.658;2022-12-07T09:19:15;27.33;;;12.25;;
40339;SDS011;26044;50.864;20.658;2022-12-07T09:21:42;26.38;;;10.57;;
40339;SDS011;26044;50.864;20.658;2022-12-07T09:24:08;26.27;;;10.90;;
40339;SDS011;26044;50.864;20.658;2022-12-07T09:26:35;24.08;;;9.63;;
40339;SDS011;26044;50.864;20.658;2022-12-07T09:29:02;23.48;;;10.25;;
40339;SDS011;26044;50.864;20.658;2022-12-07T09:31:29;22.75;;;9.23;;
40339;SDS011;26044;50.864;20.658;2022-12-07T09:33:56;22.80;;;8.45;;
40339;SDS011;26044;50.864;20.658;2022-12-07T09:36:25;26.02;;;11.02;;
40339;SDS011;26044;50.864;20.658;2022-12-07T09:38:52;26.00;;;10.05;;
40339;SDS011;26044;50.864;20.658;2022-12-07T09:41:19;28.40;;;11.15;;
40339;SDS011;26044;50.864;20.658;2022-12-07T09:43:47;28.38;;;10.45;;
40339;SDS011;26044;50.864;20.658;2022-12-07T09:46:14;26.17;;;10.32;;
40339;SDS011;26044;50.864;20.658;2022-12-07T09:48:44;28.77;;;10.73;;
40339;SDS011;26044;50.864;20.658;2022-12-07T09:53:49;29.40;;;11.50;;
40339;SDS011;26044;50.864;20.658;2022-12-07T09:56:17;27.20;;;11.30;;
40339;SDS011;26044;50.864;20.658;2022-12-07T09:58:45;26.77;;;10.63;;
40339;SDS011;26044;50.864;20.658;2022-12-07T10:06:40;21.33;;;8.27;;
40339;SDS011;26044;50.864;20.658;2022-12-07T10:09:09;18.75;;;7.15;;
40339;SDS011;26044;50.864;20.658;2022-12-07T10:14:27;21.13;;;8.77;;
40339;SDS011;26044;50.864;20.658;2022-12-07T10:20:17;21.20;;;8.57;;
40339;SDS011;26044;50.864;20.658;2022-12-07T10:22:56;21.33;;;9.10;;
40339;SDS011;26044;50.864;20.658;2022-12-07T10:25:34;22.95;;;9.27;;
40339;SDS011;26044;50.864;20.658;2022-12-07T10:28:09;23.20;;;10.70;;
40339;SDS011;26044;50.864;20.658;2022-12-07T10:33:55;25.08;;;9.93;;
40339;SDS011;26044;50.864;20.658;2022-12-07T10:36:35;23.45;;;8.65;;
40339;SDS011;26044;50.864;20.658;2022-12-07T10:39:13;17.92;;;7.43;;
40339;SDS011;26044;50.864;20.658;2022-12-07T10:44:23;20.40;;;7.88;;
40339;SDS011;26044;50.864;20.658;2022-12-07T10:57:34;21.92;;;8.85;;
40339;SDS011;26044;50.864;20.658;2022-12-07T11:00:21;21.40;;;8.50;;
40339;SDS011;26044;50.864;20.658;2022-12-07T11:03:08;20.67;;;8.13;;
40339;SDS011;26044;50.864;20.658;2022-12-07T11:05:49;19.55;;;8.77;;
40339;SDS011;26044;50.864;20.658;2022-12-07T11:17:20;23.38;;;9.32;;
40339;SDS011;26044;50.864;20.658;2022-12-07T11:23:15;25.40;;;10.93;;
40339;SDS011;26044;50.864;20.658;2022-12-07T11:31:36;24.77;;;9.82;;
40339;SDS011;26044;50.864;20.658;2022-12-07T11:34:32;25.40;;;9.70;;
40339;SDS011;26044;50.864;20.658;2022-12-07T11:37:21;22.70;;;9.25;;
40339;SDS011;26044;50.864;20.658;2022-12-07T11:39:54;25.73;;;10.88;;
40339;SDS011;26044;50.864;20.658;2022-12-07T11:42:27;25.42;;;9.80;;
40339;SDS011;26044;50.864;20.658;2022-12-07T11:45:00;24.85;;;10.68;;
40339;SDS011;26044;50.864;20.658;2022-12-07T11:47:55;24.08;;;9.70;;
40339;SDS011;26044;50.864;20.658;2022-12-07T11:50:37;22.67;;;9.50;;
40339;SDS011;26044;50.864;20.658;2022-12-07T12:03:50;27.45;;;11.50;;
40339;SDS011;26044;50.864;20.658;2022-12-07T12:06:20;27.98;;;12.05;;
40339;SDS011;26044;50.864;20.658;2022-12-07T12:17:40;26.13;;;11.45;;
40339;SDS011;26044;50.864;20.658;2022-12-07T12:25:40;27.52;;;11.02;;
40339;SDS011;26044;50.864;20.658;2022-12-07T12:28:55;27.40;;;11.82;;
40339;SDS011;26044;50.864;20.658;2022-12-07T12:31:28;29.17;;;11.80;;
40339;SDS011;26044;50.864;20.658;2022-12-07T12:34:01;29.75;;;12.43;;
40339;SDS011;26044;50.864;20.658;2022-12-07T12:36:48;30.02;;;12.45;;
40339;SDS011;26044;50.864;20.658;2022-12-07T12:39:15;26.35;;;11.43;;
40339;SDS011;26044;50.864;20.658;2022-12-07T12:46:51;31.50;;;12.63;;
40339;SDS011;26044;50.864;20.658;2022-12-07T12:52:27;27.42;;;10.98;;
40339;SDS011;26044;50.864;20.658;2022-12-07T12:55:16;24.92;;;10.02;;
40339;SDS011;26044;50.864;20.658;2022-12-07T13:03:54;29.90;;;13.23;;
40339;SDS011;26044;50.864;20.658;2022-12-07T13:08:53;31.03;;;13.77;;
40339;SDS011;26044;50.864;20.658;2022-12-07T13:17:03;28.38;;;13.18;;
40339;SDS011;26044;50.864;20.658;2022-12-07T13:24:58;33.22;;;13.40;;
40339;SDS011;26044;50.864;20.658;2022-12-07T13:28:09;41.08;;;15.65;;
40339;SDS011;26044;50.864;20.658;2022-12-07T13:30:54;39.97;;;15.27;;
40339;SDS011;26044;50.864;20.658;2022-12-07T13:33:24;36.50;;;15.73;;
40339;SDS011;26044;50.864;20.658;2022-12-07T13:35:55;37.72;;;15.93;;
40339;SDS011;26044;50.864;20.658;2022-12-07T13:38:33;36.55;;;15.50;;
40339;SDS011;26044;50.864;20.658;2022-12-07T13:41:12;37.17;;;14.95;;
40339;SDS011;26044;50.864;20.658;2022-12-07T13:49:49;36.30;;;16.55;;
40339;SDS011;26044;50.864;20.658;2022-12-07T13:52:24;34.70;;;15.48;;
40339;SDS011;26044;50.864;20.658;2022-12-07T13:54:59;39.63;;;14.60;;
40339;SDS011;26044;50.864;20.658;2022-12-07T13:57:33;39.05;;;16.48;;
40339;SDS011;26044;50.864;20.658;2022-12-07T14:00:13;41.88;;;15.82;;
40339;SDS011;26044;50.864;20.658;2022-12-07T14:05:48;32.43;;;13.50;;
40339;SDS011;26044;50.864;20.658;2022-12-07T14:11:49;33.88;;;13.18;;
40339;SDS011;26044;50.864;20.658;2022-12-07T14:14:19;35.53;;;15.27;;
40339;SDS011;26044;50.864;20.658;2022-12-07T14:16:56;33.35;;;15.13;;
40339;SDS011;26044;50.864;20.658;2022-12-07T14:19:41;36.45;;;16.20;;
40339;SDS011;26044;50.864;20.658;2022-12-07T14:24:59;34.30;;;14.40;;
40339;SDS011;26044;50.864;20.658;2022-12-07T14:27:39;35.67;;;16.02;;
40339;SDS011;26044;50.864;20.658;2022-12-07T14:30:16;39.15;;;17.38;;
40339;SDS011;26044;50.864;20.658;2022-12-07T14:32:44;41.55;;;17.50;;
40339;SDS011;26044;50.864;20.658;2022-12-07T14:35:16;41.60;;;17.95;;
40339;SDS011;26044;50.864;20.658;2022-12-07T14:37:45;39.33;;;18.33;;
40339;SDS011;26044;50.864;20.658;2022-12-07T14:40:15;40.05;;;18.70;;
40339;SDS011;26044;50.864;20.658;2022-12-07T14:42:46;41.97;;;17.50;;
40339;SDS011;26044;50.864;20.658;2022-12-07T14:45:17;43.90;;;20.27;;
40339;SDS011;26044;50.864;20.658;2022-12-07T14:47:45;43.13;;;19.50;;
40339;SDS011;26044;50.864;20.658;2022-12-07T14:50:37;43.08;;;19.17;;
40339;SDS011;26044;50.864;20.658;2022-12-07T14:53:31;44.70;;;18.52;;
40339;SDS011;26044;50.864;20.658;2022-12-07T14:56:02;47.25;;;19.30;;
40339;SDS011;26044;50.864;20.658;2022-12-07T14:58:31;46.30;;;19.50;;
40339;SDS011;26044;50.864;20.658;2022-12-07T15:00:58;50.92;;;21.02;;
40339;SDS011;26044;50.864;20.658;2022-12-07T15:03:26;49.35;;;20.48;;
40339;SDS011;26044;50.864;20.658;2022-12-07T15:05:53;51.97;;;22.40;;
40339;SDS011;26044;50.864;20.658;2022-12-07T15:08:19;47.92;;;19.33;;
40339;SDS011;26044;50.864;20.658;2022-12-07T15:10:46;45.72;;;21.05;;
40339;SDS011;26044;50.864;20.658;2022-12-07T15:13:13;47.97;;;21.38;;
40339;SDS011;26044;50.864;20.658;2022-12-07T15:15:59;45.13;;;19.35;;
40339;SDS011;26044;50.864;20.658;2022-12-07T15:18:26;52.50;;;22.70;;
40339;SDS011;26044;50.864;20.658;2022-12-07T15:20:52;53.50;;;23.15;;
40339;SDS011;26044;50.864;20.658;2022-12-07T15:23:20;56.13;;;25.05;;
40339;SDS011;26044;50.864;20.658;2022-12-07T15:25:48;53.88;;;25.35;;
40339;SDS011;26044;50.864;20.658;2022-12-07T15:28:15;56.13;;;25.27;;
40339;SDS011;26044;50.864;20.658;2022-12-07T15:30:42;57.88;;;26.35;;
40339;SDS011;26044;50.864;20.658;2022-12-07T15:33:11;58.50;;;26.25;;
40339;SDS011;26044;50.864;20.658;2022-12-07T15:35:39;54.90;;;24.50;;
40339;SDS011;26044;50.864;20.658;2022-12-07T15:38:06;50.90;;;24.85;;
40339;SDS011;26044;50.864;20.658;2022-12-07T15:40:34;51.25;;;25.23;;
40339;SDS011;26044;50.864;20.658;2022-12-07T15:43:01;55.78;;;25.77;;
40339;SDS011;26044;50.864;20.658;2022-12-07T15:45:28;59.33;;;26.55;;
40339;SDS011;26044;50.864;20.658;2022-12-07T15:47:55;59.58;;;28.35;;
40339;SDS011;26044;50.864;20.658;2022-12-07T15:50:42;54.50;;;24.67;;
40339;SDS011;26044;50.864;20.658;2022-12-07T15:53:09;54.92;;;24.08;;
40339;SDS011;26044;50.864;20.658;2022-12-07T15:55:39;55.83;;;25.38;;
40339;SDS011;26044;50.864;20.658;2022-12-07T15:58:06;131.70;;;50.22;;
40339;SDS011;26044;50.864;20.658;2022-12-07T16:00:33;146.52;;;51.03;;
40339;SDS011;26044;50.864;20.658;2022-12-07T16:03:00;164.13;;;55.85;;
40339;SDS011;26044;50.864;20.658;2022-12-07T16:05:27;59.30;;;25.38;;
40339;SDS011;26044;50.864;20.658;2022-12-07T16:07:54;50.45;;;22.45;;
40339;SDS011;26044;50.864;20.658;2022-12-07T16:10:21;50.85;;;22.67;;
40339;SDS011;26044;50.864;20.658;2022-12-07T16:12:47;125.50;;;54.88;;
40339;SDS011;26044;50.864;20.658;2022-12-07T16:15:14;114.55;;;48.10;;
40339;SDS011;26044;50.864;20.658;2022-12-07T16:17:48;50.75;;;24.88;;
40339;SDS011;26044;50.864;20.658;2022-12-07T16:20:16;46.95;;;22.02;;
40339;SDS011;26044;50.864;20.658;2022-12-07T16:22:42;48.85;;;21.08;;
40339;SDS011;26044;50.864;20.658;2022-12-07T16:25:09;64.40;;;27.65;;
40339;SDS011;26044;50.864;20.658;2022-12-07T16:27:36;72.47;;;31.00;;
40339;SDS011;26044;50.864;20.658;2022-12-07T16:30:03;58.25;;;25.67;;
40339;SDS011;26044;50.864;20.658;2022-12-07T16:32:31;69.43;;;29.60;;
40339;SDS011;26044;50.864;20.658;2022-12-07T16:34:57;44.25;;;21.60;;
40339;SDS011;26044;50.864;20.658;2022-12-07T16:37:24;83.35;;;33.90;;
40339;SDS011;26044;50.864;20.658;2022-12-07T16:39:51;42.90;;;20.52;;
40339;SDS011;26044;50.864;20.658;2022-12-07T16:42:18;41.60;;;21.40;;
40339;SDS011;26044;50.864;20.658;2022-12-07T16:44:45;67.15;;;31.55;;
40339;SDS011;26044;50.864;20.658;2022-12-07T16:47:14;48.83;;;23.35;;
40339;SDS011;26044;50.864;20.658;2022-12-07T16:49:42;39.97;;;19.08;;
40339;SDS011;26044;50.864;20.658;2022-12-07T16:52:09;35.97;;;17.65;;
40339;SDS011;26044;50.864;20.658;2022-12-07T16:54:51;37.30;;;17.85;;
40339;SDS011;26044;50.864;20.658;2022-12-07T16:57:22;39.75;;;19.50;;
40339;SDS011;26044;50.864;20.658;2022-12-07T16:59:49;36.83;;;17.25;;
40339;SDS011;26044;50.864;20.658;2022-12-07T17:02:20;38.92;;;16.98;;
40339;SDS011;26044;50.864;20.658;2022-12-07T17:04:47;41.00;;;19.77;;
40339;SDS011;26044;50.864;20.658;2022-12-07T17:07:13;46.40;;;22.70;;